Ana Sayfa
METAR-TAF:

METAR-TAF

Havaalanları :

Albert J. Ellis Airport

Jacksonville, Kuzey Carolina, Amerika Birleşik Devletleri

Enlem: 34-50N, Boylam: 077-37W, yükseklik: 29 m

Güncel hava durumu gözlemi

Rapor saat 03:56 UTC de 51 dakika önce yapıldı.
Rüzgar kuzeydan 10 kt ve 17 kt'a kadar ani rüzgarlar
Sıcaklık -1°C
Nem 59%
Basınç 1028 hPa
Görüş mesafesi: 16.1 km
Açık gökyüzü

METAR: KOAJ 220356Z AUTO 36010G17KT 10SM CLR M01/M08 A3035 RMK AO2 SLP282 T10111083 FZRANO

Saat: 23:47 (04:47 UTC)

Tahmin

Rapor saat 23:24 UTC de 5 saat ve 23 dakika önce yapıldı.
Ayın 22'si saat 00 UTC'den ayın 22'si saat 24 UTC'ye kadar geçerli Tahmin
Rüzgar kuzeydan 10 kt
Görüş mesafesi: 10 km
Açık gökyüzü

TAF: KOAJ 212324Z 2200/2224 01010KT P6SM SKC AMD LTD TO CLD VIS AND WIND

4.000'den fazla havaalanı için hava durumu gözlemleri ve tahminleri (METAR ve TAF raporları).

Kullanılabilir istasyonlar harita üzerinde sarı ve kırmızı noktalarla gösterilir.

İstasyonun adını görmek için fareyi noktanın üzerinde gezdirin.

Sonrasında hava gözlem ve tahminlerini görmek için tıklayın.

Haritayı değiştirmek için: yaklaştırmak için siyah artı işaretli yeşil düğmeye ve uzaklaştırmak için de eksi işaretli düğmeye hızla tıklayın; bitişik haritalar için yeşil okları kullanın.


METAR-TAF: